Camellia — VRCP9 — position and weather

sailwx.info

Track history (hours):
 
Tides and Currents Weather Stations Pressure Air Temp Water Temp Dewpoint Dewpoint Depression Visibility Wind Speed Wind Dir Waves Ship Positions

Camellia

Last reported at 2016-Jun-27 12:15 UTC. Time now 2016-Jun-28 15:16 UTC.
Position N 46°22' W 006°08'.

Length 222 m; draft 10.3 m.

Type: Ship (hazmat cat C). MMSI: 477791900.

Date/timePositionNaut miles runAvg speedWind from/ knotsBaromVisibWave heightAir tempDewpointWater temp
2016-Jun-27 12:15N 46°22' W 006°08'1520.2
2016-Jun-27 11:31N 46°26' W 005°48'4520.0
2016-Jun-27 09:17N 46°37' W 004°45'1520.0
2016-Jun-27 08:33N 46°41' W 004°24'2119.7
2016-Jun-27 07:28N 46°47' W 003°54'1819.5
2016-Jun-27 06:33N 46°51' W 003°29'1919.4
2016-Jun-27 05:33N 46°56' W 003°02'1919.2
2016-Jun-27 04:34N 47°02' W 002°35'1313.0
2016-Jun-27 03:33N 47°09' W 002°19'1110.6
2016-Jun-27 02:33N 47°18' W 002°09'0 0.1
2016-Jun-27 01:31N 47°18' W 002°09'0 0.0
2016-Jun-27 00:31N 47°18' W 002°09'0 0.0
2016-Jun-26 23:31N 47°18' W 002°09'0 0.0
2016-Jun-26 22:28N 47°18' W 002°09'0 0.0
2016-Jun-26 21:31N 47°18' W 002°09'0 0.0
2016-Jun-26 20:31N 47°18' W 002°09'0 0.0
2016-Jun-26 19:31N 47°18' W 002°09'0 0.0
2016-Jun-26 18:28N 47°18' W 002°09'0 0.0
2016-Jun-26 17:31N 47°18' W 002°09'0 0.0
2016-Jun-26 16:28N 47°18' W 002°09'0 0.0
2016-Jun-26 15:34N 47°18' W 002°09'0 0.0
2016-Jun-26 14:34N 47°18' W 002°09'0 0.0
2016-Jun-26 13:33N 47°18' W 002°09'0 0.0
2016-Jun-26 12:33N 47°18' W 002°09'0 0.0
2016-Jun-26 11:27N 47°18' W 002°09'0 0.0
2016-Jun-26 10:33N 47°18' W 002°09'3 3.4
2016-Jun-26 09:33N 47°15' W 002°13'1111.3
2016-Jun-26 08:33N 47°06' W 002°23'9 8.6
2016-Jun-26 07:33N 47°01' W 002°33'10 9.1
2016-Jun-26 06:30N 46°58' W 002°46'6 6.0
2016-Jun-26 05:33N 47°01' W 002°53'1818.6
2016-Jun-26 04:33N 47°10' W 003°17'1918.6
2016-Jun-26 03:33N 47°16' W 003°43'14210.7
2016-Jun-25 14:17N 49°38' W 003°49'1419.1
2016-Jun-25 13:33N 49°45' W 003°31'1818.2
2016-Jun-25 12:33N 49°55' W 003°07'1717.0
2016-Jun-25 11:33N 50°01' W 002°42'1715.9
2016-Jun-25 10:29N 50°05' W 002°17'3615.4
2016-Jun-25 08:10N 50°01' W 001°21'1219.0
2016-Jun-25 07:33N 49°54' W 001°06'2019.6
2016-Jun-25 06:33N 49°44' W 000°41'1919.4
2016-Jun-25 05:33N 49°33' W 000°16'1414.4
2016-Jun-25 04:33N 49°29' E 000°05'3 3.0
2016-Jun-25 03:31N 49°27' E 000°10'0 0.0
2016-Jun-25 02:31N 49°27' E 000°10'0 0.0
2016-Jun-25 01:31N 49°27' E 000°10'0 0.0
2016-Jun-25 00:31N 49°27' E 000°10'0 0.0
2016-Jun-24 23:34N 49°27' E 000°10'0 0.0
2016-Jun-24 22:33N 49°27' E 000°10'0 0.0
2016-Jun-24 21:33N 49°27' E 000°10'0 0.0
2016-Jun-24 20:33N 49°27' E 000°10'0 0.0
2016-Jun-24 19:33N 49°27' E 000°10'0 0.0
2016-Jun-24 18:33N 49°27' E 000°10'0 0.0
2016-Jun-24 17:33N 49°27' E 000°10'0 0.0
2016-Jun-24 16:33N 49°27' E 000°10'0 0.0
2016-Jun-24 15:33N 49°27' E 000°10'0 0.0
2016-Jun-24 14:33N 49°27' E 000°10'0 0.0
2016-Jun-24 13:33N 49°27' E 000°10'0 0.0
2016-Jun-24 12:33N 49°27' E 000°10'0 0.0
2016-Jun-24 11:33N 49°27' E 000°10'0 0.0
2016-Jun-24 10:33N 49°27' E 000°10'0 0.0
2016-Jun-24 09:33N 49°27' E 000°10'0 0.0
2016-Jun-24 08:33N 49°27' E 000°10'0 0.0
2016-Jun-24 07:33N 49°27' E 000°10'0 0.0
2016-Jun-24 04:33N 49°27' E 000°10'0 0.0
2016-Jun-24 03:33N 49°27' E 000°10'0 0.0
2016-Jun-24 02:33N 49°27' E 000°10'0 0.0
2016-Jun-24 01:33N 49°27' E 000°10'0 0.0
2016-Jun-24 00:33N 49°27' E 000°10'0 0.0
2016-Jun-23 23:33N 49°27' E 000°10'0 0.0
2016-Jun-23 22:33N 49°27' E 000°10'0 0.0
2016-Jun-23 21:33N 49°27' E 000°10'0 0.0
2016-Jun-23 20:33N 49°27' E 000°10'0 0.0
2016-Jun-23 19:33N 49°27' E 000°10'0 0.0
2016-Jun-23 18:33N 49°27' E 000°10'0 0.0
2016-Jun-23 17:33N 49°27' E 000°10'0 0.0
2016-Jun-23 16:33N 49°27' E 000°10'0 0.0
2016-Jun-23 15:33N 49°27' E 000°10'0 0.0
2016-Jun-23 14:33N 49°27' E 000°10'0 0.0
2016-Jun-23 13:33N 49°27' E 000°10'0 0.0
2016-Jun-23 12:33N 49°27' E 000°10'0 0.0
2016-Jun-23 11:33N 49°27' E 000°10'0 0.0
2016-Jun-23 10:33N 49°27' E 000°10'0 0.0
2016-Jun-23 09:33N 49°27' E 000°10'0 0.0
2016-Jun-23 08:32N 49°27' E 000°10'0 0.0
2016-Jun-23 07:32N 49°27' E 000°10'0 0.0
2016-Jun-23 05:32N 49°27' E 000°10'1 1.0
2016-Jun-23 04:34N 49°28' E 000°08'1110.8
2016-Jun-23 03:34N 49°32' W 000°07'8 8.3
2016-Jun-23 02:34N 49°40' W 000°05'1717.2
2016-Jun-23 01:33N 49°57' W 000°04'1918.7
2016-Jun-23 00:33N 50°16' W 000°06'1616.0
2016-Jun-22 23:33N 50°30' E 000°06'1717.0
2016-Jun-22 22:33N 50°36' E 000°31'1817.7
2016-Jun-22 21:33N 50°47' E 000°54'2019.8
2016-Jun-22 20:33N 50°60' E 001°18'2121.2
2016-Jun-22 19:33N 51°12' E 001°44'1919.4
2016-Jun-22 18:33N 51°29' E 001°60'6616.6
2016-Jun-22 14:33N 52°04' E 003°31'1515.3
2016-Jun-22 13:33N 52°02' E 003°56'1212.0
2016-Jun-22 12:34N 51°56' E 004°13'8 8.4
2016-Jun-22 11:34N 51°54' E 004°26'1 0.5
2016-Jun-22 10:28N 51°53' E 004°26'0 0.0
2016-Jun-22 09:32N 51°53' E 004°26'0 0.0
2016-Jun-22 08:32N 51°53' E 004°26'0 0.0
2016-Jun-22 07:34N 51°53' E 004°26'0 0.0
2016-Jun-22 06:34N 51°53' E 004°26'0 0.0
2016-Jun-22 05:33N 51°53' E 004°26'0 0.0
2016-Jun-22 04:33N 51°53' E 004°26'0 0.0
2016-Jun-22 03:33N 51°53' E 004°26'2 1.5
2016-Jun-22 02:33N 51°54' E 004°23'9 9.4
2016-Jun-22 01:33N 51°58' E 004°09'1312.9
2016-Jun-22 00:33N 51°60' E 003°49'1111.0
2016-Jun-21 23:33N 51°56' E 003°32'1817.7
2016-Jun-21 22:31N 51°48' E 003°05'1817.8
2016-Jun-21 21:31N 51°34' E 002°47'1212.5
2016-Jun-21 20:33N 51°22' E 002°46'1413.9
2016-Jun-21 19:33N 51°24' E 003°08'4 3.4
2016-Jun-21 18:32N 51°21' E 003°11'0 0.0
2016-Jun-21 17:23N 51°21' E 003°11'0 0.0
2016-Jun-21 16:32N 51°21' E 003°11'0 0.0
2016-Jun-21 15:14N 51°21' E 003°11'0 0.0
2016-Jun-21 14:23N 51°21' E 003°11'0 0.0
2016-Jun-21 13:29N 51°21' E 003°11'0 0.0
2016-Jun-21 12:33N 51°21' E 003°11'6 6.3
2016-Jun-21 11:33N 51°24' E 003°03'1414.1
2016-Jun-21 10:33N 51°22' E 002°41'1111.1
2016-Jun-21 09:33N 51°20' E 002°23'1716.8
2016-Jun-21 08:33N 51°12' E 002°00'1211.7
2016-Jun-21 07:33N 51°03' E 001°48'1413.8
2016-Jun-21 06:33N 51°02' E 002°10'2 1.0
2016-Jun-21 04:33N 51°01' E 002°11'0 0.0
2016-Jun-21 03:18N 51°01' E 002°11'0 0.0
2016-Jun-21 02:33N 51°01' E 002°11'0 0.0
2016-Jun-21 00:27N 51°01' E 002°11'0 0.0
2016-Jun-20 23:27N 51°01' E 002°11'0 0.0
2016-Jun-20 22:33N 51°01' E 002°11'0 0.0
2016-Jun-20 21:33N 51°01' E 002°11'0 0.0
2016-Jun-20 20:15N 51°01' E 002°11'0 0.0
2016-Jun-20 19:32N 51°01' E 002°11'0 0.0
2016-Jun-20 18:32N 51°01' E 002°11'0 0.0
2016-Jun-20 17:32N 51°01' E 002°11'0 0.0
2016-Jun-20 16:29N 51°01' E 002°11'0 0.0
2016-Jun-20 15:23N 51°01' E 002°11'0 0.0
2016-Jun-20 13:32N 51°01' E 002°11'0 0.0
2016-Jun-20 12:32N 51°01' E 002°11'0 0.0
2016-Jun-20 11:20N 51°01' E 002°11'0 0.0
2016-Jun-20 10:09N 51°01' E 002°11'0 0.0
2016-Jun-20 09:32N 51°01' E 002°11'0 0.0
2016-Jun-20 08:32N 51°01' E 002°11'0 0.0
2016-Jun-20 07:32N 51°01' E 002°11'0 0.0
2016-Jun-20 06:32N 51°01' E 002°11'0 0.0
2016-Jun-20 05:32N 51°01' E 002°11'0 0.0
2016-Jun-20 04:32N 51°01' E 002°11'0 0.0
2016-Jun-20 03:26N 51°01' E 002°11'0 0.0
2016-Jun-20 02:32N 51°01' E 002°11'3 3.1
2016-Jun-20 01:33N 51°03' E 002°08'1413.7
2016-Jun-20 00:33N 51°02' E 001°46'10 9.6
2016-Jun-19 23:33N 50°57' E 001°34'6520.4
2016-Jun-19 20:21N 50°19' E 000°09'1822.0
2016-Jun-19 19:33N 50°15' W 000°17'2222.1
2016-Jun-19 18:33N 50°09' W 000°51'8120.1
2016-Jun-19 14:32N 49°48' W 002°52'1918.6
2016-Jun-19 13:30N 49°43' W 003°21'  
Track history (hours):
 
Tides and Currents Weather Stations Pressure Air Temp Water Temp Dewpoint Dewpoint Depression Visibility Wind Speed Wind Dir Waves Ship Positions

Camellia

Last reported at 2016-Jun-27 12:15 UTC. Time now 2016-Jun-28 15:16 UTC.
Position N 46°22' W 006°08'.

Length 222 m; draft 10.3 m.

Type: Ship (hazmat cat C). MMSI: 477791900.

Date/timePositionNaut miles runAvg speedWind from/ knotsBaromVisibWave heightAir tempDewpointWater temp
2016-Jun-27 12:15N 46°22' W 006°08'1520.2
2016-Jun-27 11:31N 46°26' W 005°48'4520.0
2016-Jun-27 09:17N 46°37' W 004°45'1520.0
2016-Jun-27 08:33N 46°41' W 004°24'2119.7
2016-Jun-27 07:28N 46°47' W 003°54'1819.5
2016-Jun-27 06:33N 46°51' W 003°29'1919.4
2016-Jun-27 05:33N 46°56' W 003°02'1919.2
2016-Jun-27 04:34N 47°02' W 002°35'1313.0
2016-Jun-27 03:33N 47°09' W 002°19'1110.6
2016-Jun-27 02:33N 47°18' W 002°09'0 0.1
2016-Jun-27 01:31N 47°18' W 002°09'0 0.0
2016-Jun-27 00:31N 47°18' W 002°09'0 0.0
2016-Jun-26 23:31N 47°18' W 002°09'0 0.0
2016-Jun-26 22:28N 47°18' W 002°09'0 0.0
2016-Jun-26 21:31N 47°18' W 002°09'0 0.0
2016-Jun-26 20:31N 47°18' W 002°09'0 0.0
2016-Jun-26 19:31N 47°18' W 002°09'0 0.0
2016-Jun-26 18:28N 47°18' W 002°09'0 0.0
2016-Jun-26 17:31N 47°18' W 002°09'0 0.0
2016-Jun-26 16:28N 47°18' W 002°09'0 0.0
2016-Jun-26 15:34N 47°18' W 002°09'0 0.0
2016-Jun-26 14:34N 47°18' W 002°09'0 0.0
2016-Jun-26 13:33N 47°18' W 002°09'0 0.0
2016-Jun-26 12:33N 47°18' W 002°09'0 0.0
2016-Jun-26 11:27N 47°18' W 002°09'0 0.0
2016-Jun-26 10:33N 47°18' W 002°09'3 3.4
2016-Jun-26 09:33N 47°15' W 002°13'1111.3
2016-Jun-26 08:33N 47°06' W 002°23'9 8.6
2016-Jun-26 07:33N 47°01' W 002°33'10 9.1
2016-Jun-26 06:30N 46°58' W 002°46'6 6.0
2016-Jun-26 05:33N 47°01' W 002°53'1818.6
2016-Jun-26 04:33N 47°10' W 003°17'1918.6
2016-Jun-26 03:33N 47°16' W 003°43'14210.7
2016-Jun-25 14:17N 49°38' W 003°49'1419.1
2016-Jun-25 13:33N 49°45' W 003°31'1818.2
2016-Jun-25 12:33N 49°55' W 003°07'1717.0
2016-Jun-25 11:33N 50°01' W 002°42'1715.9
2016-Jun-25 10:29N 50°05' W 002°17'3615.4
2016-Jun-25 08:10N 50°01' W 001°21'1219.0
2016-Jun-25 07:33N 49°54' W 001°06'2019.6
2016-Jun-25 06:33N 49°44' W 000°41'1919.4
2016-Jun-25 05:33N 49°33' W 000°16'1414.4
2016-Jun-25 04:33N 49°29' E 000°05'3 3.0
2016-Jun-25 03:31N 49°27' E 000°10'0 0.0
2016-Jun-25 02:31N 49°27' E 000°10'0 0.0
2016-Jun-25 01:31N 49°27' E 000°10'0 0.0
2016-Jun-25 00:31N 49°27' E 000°10'0 0.0
2016-Jun-24 23:34N 49°27' E 000°10'0 0.0
2016-Jun-24 22:33N 49°27' E 000°10'0 0.0
2016-Jun-24 21:33N 49°27' E 000°10'0 0.0
2016-Jun-24 20:33N 49°27' E 000°10'0 0.0
2016-Jun-24 19:33N 49°27' E 000°10'0 0.0
2016-Jun-24 18:33N 49°27' E 000°10'0 0.0
2016-Jun-24 17:33N 49°27' E 000°10'0 0.0
2016-Jun-24 16:33N 49°27' E 000°10'0 0.0
2016-Jun-24 15:33N 49°27' E 000°10'0 0.0
2016-Jun-24 14:33N 49°27' E 000°10'0 0.0
2016-Jun-24 13:33N 49°27' E 000°10'0 0.0
2016-Jun-24 12:33N 49°27' E 000°10'0 0.0
2016-Jun-24 11:33N 49°27' E 000°10'0 0.0
2016-Jun-24 10:33N 49°27' E 000°10'0 0.0
2016-Jun-24 09:33N 49°27' E 000°10'0 0.0
2016-Jun-24 08:33N 49°27' E 000°10'0 0.0
2016-Jun-24 07:33N 49°27' E 000°10'0 0.0
2016-Jun-24 04:33N 49°27' E 000°10'0 0.0
2016-Jun-24 03:33N 49°27' E 000°10'0 0.0
2016-Jun-24 02:33N 49°27' E 000°10'0 0.0
2016-Jun-24 01:33N 49°27' E 000°10'0 0.0
2016-Jun-24 00:33N 49°27' E 000°10'0 0.0
2016-Jun-23 23:33N 49°27' E 000°10'0 0.0
2016-Jun-23 22:33N 49°27' E 000°10'0 0.0
2016-Jun-23 21:33N 49°27' E 000°10'0 0.0
2016-Jun-23 20:33N 49°27' E 000°10'0 0.0
2016-Jun-23 19:33N 49°27' E 000°10'0 0.0
2016-Jun-23 18:33N 49°27' E 000°10'0 0.0
2016-Jun-23 17:33N 49°27' E 000°10'0 0.0
2016-Jun-23 16:33N 49°27' E 000°10'0 0.0
2016-Jun-23 15:33N 49°27' E 000°10'0 0.0
2016-Jun-23 14:33N 49°27' E 000°10'0 0.0
2016-Jun-23 13:33N 49°27' E 000°10'0 0.0
2016-Jun-23 12:33N 49°27' E 000°10'0 0.0
2016-Jun-23 11:33N 49°27' E 000°10'0 0.0
2016-Jun-23 10:33N 49°27' E 000°10'0 0.0
2016-Jun-23 09:33N 49°27' E 000°10'0 0.0
2016-Jun-23 08:32N 49°27' E 000°10'0 0.0
2016-Jun-23 07:32N 49°27' E 000°10'0 0.0
2016-Jun-23 05:32N 49°27' E 000°10'1 1.0
2016-Jun-23 04:34N 49°28' E 000°08'1110.8
2016-Jun-23 03:34N 49°32' W 000°07'8 8.3
2016-Jun-23 02:34N 49°40' W 000°05'1717.2
2016-Jun-23 01:33N 49°57' W 000°04'1918.7
2016-Jun-23 00:33N 50°16' W 000°06'1616.0
2016-Jun-22 23:33N 50°30' E 000°06'1717.0
2016-Jun-22 22:33N 50°36' E 000°31'1817.7
2016-Jun-22 21:33N 50°47' E 000°54'2019.8
2016-Jun-22 20:33N 50°60' E 001°18'2121.2
2016-Jun-22 19:33N 51°12' E 001°44'1919.4
2016-Jun-22 18:33N 51°29' E 001°60'6616.6
2016-Jun-22 14:33N 52°04' E 003°31'1515.3
2016-Jun-22 13:33N 52°02' E 003°56'1212.0
2016-Jun-22 12:34N 51°56' E 004°13'8 8.4
2016-Jun-22 11:34N 51°54' E 004°26'1 0.5
2016-Jun-22 10:28N 51°53' E 004°26'0 0.0
2016-Jun-22 09:32N 51°53' E 004°26'0 0.0
2016-Jun-22 08:32N 51°53' E 004°26'0 0.0
2016-Jun-22 07:34N 51°53' E 004°26'0 0.0
2016-Jun-22 06:34N 51°53' E 004°26'0 0.0
2016-Jun-22 05:33N 51°53' E 004°26'0 0.0
2016-Jun-22 04:33N 51°53' E 004°26'0 0.0
2016-Jun-22 03:33N 51°53' E 004°26'2 1.5
2016-Jun-22 02:33N 51°54' E 004°23'9 9.4
2016-Jun-22 01:33N 51°58' E 004°09'1312.9
2016-Jun-22 00:33N 51°60' E 003°49'1111.0
2016-Jun-21 23:33N 51°56' E 003°32'1817.7
2016-Jun-21 22:31N 51°48' E 003°05'1817.8
2016-Jun-21 21:31N 51°34' E 002°47'1212.5
2016-Jun-21 20:33N 51°22' E 002°46'1413.9
2016-Jun-21 19:33N 51°24' E 003°08'4 3.4
2016-Jun-21 18:32N 51°21' E 003°11'0 0.0
2016-Jun-21 17:23N 51°21' E 003°11'0 0.0
2016-Jun-21 16:32N 51°21' E 003°11'0 0.0
2016-Jun-21 15:14N 51°21' E 003°11'0 0.0
2016-Jun-21 14:23N 51°21' E 003°11'0 0.0
2016-Jun-21 13:29N 51°21' E 003°11'0 0.0
2016-Jun-21 12:33N 51°21' E 003°11'6 6.3
2016-Jun-21 11:33N 51°24' E 003°03'1414.1
2016-Jun-21 10:33N 51°22' E 002°41'1111.1
2016-Jun-21 09:33N 51°20' E 002°23'1716.8
2016-Jun-21 08:33N 51°12' E 002°00'1211.7
2016-Jun-21 07:33N 51°03' E 001°48'1413.8
2016-Jun-21 06:33N 51°02' E 002°10'2 1.0
2016-Jun-21 04:33N 51°01' E 002°11'0 0.0
2016-Jun-21 03:18N 51°01' E 002°11'0 0.0
2016-Jun-21 02:33N 51°01' E 002°11'0 0.0
2016-Jun-21 00:27N 51°01' E 002°11'0 0.0
2016-Jun-20 23:27N 51°01' E 002°11'0 0.0
2016-Jun-20 22:33N 51°01' E 002°11'0 0.0
2016-Jun-20 21:33N 51°01' E 002°11'0 0.0
2016-Jun-20 20:15N 51°01' E 002°11'0 0.0
2016-Jun-20 19:32N 51°01' E 002°11'0 0.0
2016-Jun-20 18:32N 51°01' E 002°11'0 0.0
2016-Jun-20 17:32N 51°01' E 002°11'0 0.0
2016-Jun-20 16:29N 51°01' E 002°11'0 0.0
2016-Jun-20 15:23N 51°01' E 002°11'0 0.0
2016-Jun-20 13:32N 51°01' E 002°11'0 0.0
2016-Jun-20 12:32N 51°01' E 002°11'0 0.0
2016-Jun-20 11:20N 51°01' E 002°11'0 0.0
2016-Jun-20 10:09N 51°01' E 002°11'0 0.0
2016-Jun-20 09:32N 51°01' E 002°11'0 0.0
2016-Jun-20 08:32N 51°01' E 002°11'0 0.0
2016-Jun-20 07:32N 51°01' E 002°11'0 0.0
2016-Jun-20 06:32N 51°01' E 002°11'0 0.0
2016-Jun-20 05:32N 51°01' E 002°11'0 0.0
2016-Jun-20 04:32N 51°01' E 002°11'0 0.0
2016-Jun-20 03:26N 51°01' E 002°11'0 0.0
2016-Jun-20 02:32N 51°01' E 002°11'3 3.1
2016-Jun-20 01:33N 51°03' E 002°08'1413.7
2016-Jun-20 00:33N 51°02' E 001°46'10 9.6
2016-Jun-19 23:33N 50°57' E 001°34'6520.4
2016-Jun-19 20:21N 50°19' E 000°09'1822.0
2016-Jun-19 19:33N 50°15' W 000°17'2222.1
2016-Jun-19 18:33N 50°09' W 000°51'8120.1
2016-Jun-19 14:32N 49°48' W 002°52'1918.6
2016-Jun-19 13:30N 49°43' W 003°21'  

Dump ship's entire track history